sensor_id;sensor_type;location;lat;lon;timestamp;P1;durP1;ratioP1;P2;durP2;ratioP2
55732;SDS011;41637;52.364;9.910;2022-10-16T00:00:54;2.50;;;0.90;;
55732;SDS011;41637;52.364;9.910;2022-10-16T00:03:21;3.10;;;0.80;;
55732;SDS011;41637;52.364;9.910;2022-10-16T00:05:54;2.90;;;0.80;;
55732;SDS011;41637;52.364;9.910;2022-10-16T00:08:26;3.10;;;0.80;;
55732;SDS011;41637;52.364;9.910;2022-10-16T00:10:52;3.30;;;1.10;;
55732;SDS011;41637;52.364;9.910;2022-10-16T00:13:19;2.70;;;0.90;;
55732;SDS011;41637;52.364;9.910;2022-10-16T00:15:46;1.80;;;0.70;;
55732;SDS011;41637;52.364;9.910;2022-10-16T00:18:13;2.20;;;0.70;;
55732;SDS011;41637;52.364;9.910;2022-10-16T00:20:40;2.20;;;0.80;;
55732;SDS011;41637;52.364;9.910;2022-10-16T00:23:07;1.90;;;0.80;;
55732;SDS011;41637;52.364;9.910;2022-10-16T00:25:34;2.10;;;0.70;;
55732;SDS011;41637;52.364;9.910;2022-10-16T00:28:00;1.90;;;0.80;;
55732;SDS011;41637;52.364;9.910;2022-10-16T00:30:27;3.10;;;0.80;;
55732;SDS011;41637;52.364;9.910;2022-10-16T00:32:54;4.90;;;1.00;;
55732;SDS011;41637;52.364;9.910;2022-10-16T00:35:21;1.70;;;0.70;;
55732;SDS011;41637;52.364;9.910;2022-10-16T00:37:47;2.90;;;1.20;;
55732;SDS011;41637;52.364;9.910;2022-10-16T00:40:14;2.90;;;1.10;;
55732;SDS011;41637;52.364;9.910;2022-10-16T00:42:40;2.80;;;1.10;;
55732;SDS011;41637;52.364;9.910;2022-10-16T00:45:10;4.20;;;1.30;;
55732;SDS011;41637;52.364;9.910;2022-10-16T00:47:37;3.50;;;1.10;;
55732;SDS011;41637;52.364;9.910;2022-10-16T00:50:16;2.80;;;1.00;;
55732;SDS011;41637;52.364;9.910;2022-10-16T00:52:56;2.60;;;1.20;;
55732;SDS011;41637;52.364;9.910;2022-10-16T00:55:24;3.30;;;1.10;;
55732;SDS011;41637;52.364;9.910;2022-10-16T00:57:52;1.80;;;1.00;;
55732;SDS011;41637;52.364;9.910;2022-10-16T01:00:20;3.00;;;1.00;;
55732;SDS011;41637;52.364;9.910;2022-10-16T01:02:56;2.60;;;1.10;;
55732;SDS011;41637;52.364;9.910;2022-10-16T01:05:44;3.80;;;1.10;;
55732;SDS011;41637;52.364;9.910;2022-10-16T01:08:34;2.30;;;1.00;;
55732;SDS011;41637;52.364;9.910;2022-10-16T01:11:33;3.00;;;1.30;;
55732;SDS011;41637;52.364;9.910;2022-10-16T01:14:06;3.00;;;1.30;;
55732;SDS011;41637;52.364;9.910;2022-10-16T01:17:01;3.20;;;1.00;;
55732;SDS011;41637;52.364;9.910;2022-10-16T01:19:50;3.30;;;1.20;;
55732;SDS011;41637;52.364;9.910;2022-10-16T01:22:39;2.60;;;1.20;;
55732;SDS011;41637;52.364;9.910;2022-10-16T01:25:20;2.00;;;1.20;;
55732;SDS011;41637;52.364;9.910;2022-10-16T01:27:52;3.80;;;1.20;;
55732;SDS011;41637;52.364;9.910;2022-10-16T01:30:26;2.90;;;1.30;;
55732;SDS011;41637;52.364;9.910;2022-10-16T01:32:58;2.40;;;1.50;;
55732;SDS011;41637;52.364;9.910;2022-10-16T01:35:31;3.30;;;1.60;;
55732;SDS011;41637;52.364;9.910;2022-10-16T01:40:53;4.20;;;1.70;;
55732;SDS011;41637;52.364;9.910;2022-10-16T01:43:28;4.30;;;2.10;;
55732;SDS011;41637;52.364;9.910;2022-10-16T01:46:01;4.40;;;1.90;;
55732;SDS011;41637;52.364;9.910;2022-10-16T01:48:28;3.90;;;1.90;;
55732;SDS011;41637;52.364;9.910;2022-10-16T01:50:59;3.70;;;1.90;;
55732;SDS011;41637;52.364;9.910;2022-10-16T01:53:31;4.60;;;2.30;;
55732;SDS011;41637;52.364;9.910;2022-10-16T01:55:59;4.70;;;2.10;;
55732;SDS011;41637;52.364;9.910;2022-10-16T01:58:27;2.90;;;2.00;;
55732;SDS011;41637;52.364;9.910;2022-10-16T02:01:00;4.00;;;2.10;;
55732;SDS011;41637;52.364;9.910;2022-10-16T02:03:28;3.40;;;2.50;;
55732;SDS011;41637;52.364;9.910;2022-10-16T02:05:55;3.70;;;1.90;;
55732;SDS011;41637;52.364;9.910;2022-10-16T02:08:25;3.20;;;2.00;;
55732;SDS011;41637;52.364;9.910;2022-10-16T02:10:54;3.60;;;2.40;;
55732;SDS011;41637;52.364;9.910;2022-10-16T02:13:27;3.30;;;2.20;;
55732;SDS011;41637;52.364;9.910;2022-10-16T02:15:58;3.20;;;1.90;;
55732;SDS011;41637;52.364;9.910;2022-10-16T02:18:25;3.70;;;2.20;;
55732;SDS011;41637;52.364;9.910;2022-10-16T02:20:56;4.40;;;2.00;;
55732;SDS011;41637;52.364;9.910;2022-10-16T02:26:12;3.20;;;2.40;;
55732;SDS011;41637;52.364;9.910;2022-10-16T02:28:45;5.10;;;2.20;;
55732;SDS011;41637;52.364;9.910;2022-10-16T02:31:19;3.50;;;2.30;;
55732;SDS011;41637;52.364;9.910;2022-10-16T02:33:52;4.80;;;2.20;;
55732;SDS011;41637;52.364;9.910;2022-10-16T02:36:20;4.30;;;2.10;;
55732;SDS011;41637;52.364;9.910;2022-10-16T02:38:47;4.50;;;2.00;;
55732;SDS011;41637;52.364;9.910;2022-10-16T02:41:14;4.60;;;1.90;;
55732;SDS011;41637;52.364;9.910;2022-10-16T02:43:41;3.00;;;2.00;;
55732;SDS011;41637;52.364;9.910;2022-10-16T02:46:07;4.60;;;2.10;;
55732;SDS011;41637;52.364;9.910;2022-10-16T02:48:33;4.00;;;1.90;;
55732;SDS011;41637;52.364;9.910;2022-10-16T02:51:00;4.40;;;2.10;;
55732;SDS011;41637;52.364;9.910;2022-10-16T02:53:27;3.40;;;1.80;;
55732;SDS011;41637;52.364;9.910;2022-10-16T02:55:53;3.70;;;2.00;;
55732;SDS011;41637;52.364;9.910;2022-10-16T02:58:20;5.90;;;2.20;;
55732;SDS011;41637;52.364;9.910;2022-10-16T03:00:46;3.50;;;2.00;;
55732;SDS011;41637;52.364;9.910;2022-10-16T03:03:13;3.70;;;1.80;;
55732;SDS011;41637;52.364;9.910;2022-10-16T03:05:39;4.20;;;2.20;;
55732;SDS011;41637;52.364;9.910;2022-10-16T03:08:05;3.00;;;1.90;;
55732;SDS011;41637;52.364;9.910;2022-10-16T03:10:32;2.90;;;2.00;;
55732;SDS011;41637;52.364;9.910;2022-10-16T03:12:58;5.90;;;2.20;;
55732;SDS011;41637;52.364;9.910;2022-10-16T03:15:25;3.50;;;2.00;;
55732;SDS011;41637;52.364;9.910;2022-10-16T03:17:51;3.90;;;1.90;;
55732;SDS011;41637;52.364;9.910;2022-10-16T03:20:18;4.30;;;2.10;;
55732;SDS011;41637;52.364;9.910;2022-10-16T03:22:44;4.90;;;2.00;;
55732;SDS011;41637;52.364;9.910;2022-10-16T03:25:11;3.80;;;2.00;;
55732;SDS011;41637;52.364;9.910;2022-10-16T03:27:37;3.00;;;2.00;;
55732;SDS011;41637;52.364;9.910;2022-10-16T03:30:04;3.80;;;2.10;;
55732;SDS011;41637;52.364;9.910;2022-10-16T03:32:30;3.60;;;2.10;;
55732;SDS011;41637;52.364;9.910;2022-10-16T03:34:57;4.20;;;2.00;;
55732;SDS011;41637;52.364;9.910;2022-10-16T03:37:23;4.00;;;2.20;;
55732;SDS011;41637;52.364;9.910;2022-10-16T03:39:51;4.50;;;2.30;;
55732;SDS011;41637;52.364;9.910;2022-10-16T03:42:17;5.20;;;2.20;;
55732;SDS011;41637;52.364;9.910;2022-10-16T03:44:44;3.70;;;2.40;;
55732;SDS011;41637;52.364;9.910;2022-10-16T03:47:10;4.80;;;2.20;;
55732;SDS011;41637;52.364;9.910;2022-10-16T03:49:37;4.00;;;2.40;;
55732;SDS011;41637;52.364;9.910;2022-10-16T03:52:03;4.50;;;2.90;;
55732;SDS011;41637;52.364;9.910;2022-10-16T03:54:29;5.30;;;2.90;;
55732;SDS011;41637;52.364;9.910;2022-10-16T03:56:56;5.30;;;3.10;;
55732;SDS011;41637;52.364;9.910;2022-10-16T03:59:22;5.30;;;3.50;;
55732;SDS011;41637;52.364;9.910;2022-10-16T04:01:48;5.20;;;3.40;;
55732;SDS011;41637;52.364;9.910;2022-10-16T04:04:15;4.80;;;3.50;;
55732;SDS011;41637;52.364;9.910;2022-10-16T04:06:41;7.70;;;3.60;;
55732;SDS011;41637;52.364;9.910;2022-10-16T04:09:08;7.90;;;3.90;;
55732;SDS011;41637;52.364;9.910;2022-10-16T04:11:34;8.40;;;4.10;;
55732;SDS011;41637;52.364;9.910;2022-10-16T04:14:00;6.50;;;3.70;;
55732;SDS011;41637;52.364;9.910;2022-10-16T04:16:27;6.00;;;3.70;;
55732;SDS011;41637;52.364;9.910;2022-10-16T04:18:54;6.10;;;3.60;;
55732;SDS011;41637;52.364;9.910;2022-10-16T04:21:23;6.20;;;3.30;;
55732;SDS011;41637;52.364;9.910;2022-10-16T04:23:49;6.20;;;3.40;;
55732;SDS011;41637;52.364;9.910;2022-10-16T04:26:16;6.00;;;3.40;;
55732;SDS011;41637;52.364;9.910;2022-10-16T04:28:42;6.20;;;3.50;;
55732;SDS011;41637;52.364;9.910;2022-10-16T04:31:09;6.40;;;3.10;;
55732;SDS011;41637;52.364;9.910;2022-10-16T04:33:35;5.20;;;3.20;;
55732;SDS011;41637;52.364;9.910;2022-10-16T04:36:02;6.00;;;2.90;;
55732;SDS011;41637;52.364;9.910;2022-10-16T04:38:29;4.50;;;3.10;;
55732;SDS011;41637;52.364;9.910;2022-10-16T04:40:56;4.60;;;3.00;;
55732;SDS011;41637;52.364;9.910;2022-10-16T04:43:23;3.60;;;2.70;;
55732;SDS011;41637;52.364;9.910;2022-10-16T04:45:49;5.20;;;2.60;;
55732;SDS011;41637;52.364;9.910;2022-10-16T04:48:17;5.80;;;2.70;;
55732;SDS011;41637;52.364;9.910;2022-10-16T04:50:44;4.00;;;2.80;;
55732;SDS011;41637;52.364;9.910;2022-10-16T04:53:10;4.30;;;2.50;;
55732;SDS011;41637;52.364;9.910;2022-10-16T04:55:37;4.70;;;2.80;;
55732;SDS011;41637;52.364;9.910;2022-10-16T04:58:04;5.10;;;2.80;;
55732;SDS011;41637;52.364;9.910;2022-10-16T05:00:31;5.80;;;2.80;;
55732;SDS011;41637;52.364;9.910;2022-10-16T05:02:57;4.80;;;2.90;;
55732;SDS011;41637;52.364;9.910;2022-10-16T05:05:25;4.90;;;2.70;;
55732;SDS011;41637;52.364;9.910;2022-10-16T05:07:52;4.40;;;2.70;;
55732;SDS011;41637;52.364;9.910;2022-10-16T05:10:18;5.20;;;3.30;;
55732;SDS011;41637;52.364;9.910;2022-10-16T05:12:45;5.10;;;3.10;;
55732;SDS011;41637;52.364;9.910;2022-10-16T05:15:12;6.00;;;3.30;;
55732;SDS011;41637;52.364;9.910;2022-10-16T05:17:38;4.90;;;3.40;;
55732;SDS011;41637;52.364;9.910;2022-10-16T05:20:10;4.00;;;3.20;;
55732;SDS011;41637;52.364;9.910;2022-10-16T05:22:37;6.30;;;3.60;;
55732;SDS011;41637;52.364;9.910;2022-10-16T05:25:04;5.50;;;3.60;;
55732;SDS011;41637;52.364;9.910;2022-10-16T05:27:30;5.50;;;3.70;;
55732;SDS011;41637;52.364;9.910;2022-10-16T05:29:57;7.20;;;3.50;;
55732;SDS011;41637;52.364;9.910;2022-10-16T05:32:23;5.70;;;3.80;;
55732;SDS011;41637;52.364;9.910;2022-10-16T05:34:50;5.10;;;3.20;;
55732;SDS011;41637;52.364;9.910;2022-10-16T05:37:16;6.00;;;3.40;;
55732;SDS011;41637;52.364;9.910;2022-10-16T05:39:43;6.50;;;3.30;;
55732;SDS011;41637;52.364;9.910;2022-10-16T05:42:09;6.20;;;3.40;;
55732;SDS011;41637;52.364;9.910;2022-10-16T05:44:35;4.70;;;3.00;;
55732;SDS011;41637;52.364;9.910;2022-10-16T05:47:02;7.20;;;3.30;;
55732;SDS011;41637;52.364;9.910;2022-10-16T05:49:28;6.30;;;2.90;;
55732;SDS011;41637;52.364;9.910;2022-10-16T05:51:55;4.90;;;3.10;;
55732;SDS011;41637;52.364;9.910;2022-10-16T05:54:21;4.10;;;2.80;;
55732;SDS011;41637;52.364;9.910;2022-10-16T05:56:47;3.90;;;2.80;;
55732;SDS011;41637;52.364;9.910;2022-10-16T05:59:14;5.10;;;2.70;;
55732;SDS011;41637;52.364;9.910;2022-10-16T06:01:40;5.30;;;2.50;;
55732;SDS011;41637;52.364;9.910;2022-10-16T06:04:07;6.60;;;2.60;;
55732;SDS011;41637;52.364;9.910;2022-10-16T06:06:35;3.40;;;2.30;;
55732;SDS011;41637;52.364;9.910;2022-10-16T06:09:02;4.10;;;2.30;;
55732;SDS011;41637;52.364;9.910;2022-10-16T06:11:30;5.60;;;2.30;;
55732;SDS011;41637;52.364;9.910;2022-10-16T06:13:58;5.60;;;2.60;;
55732;SDS011;41637;52.364;9.910;2022-10-16T06:16:28;3.90;;;2.20;;
55732;SDS011;41637;52.364;9.910;2022-10-16T06:18:55;5.60;;;2.10;;
55732;SDS011;41637;52.364;9.910;2022-10-16T06:21:26;4.20;;;2.00;;
55732;SDS011;41637;52.364;9.910;2022-10-16T06:23:54;3.90;;;1.90;;
55732;SDS011;41637;52.364;9.910;2022-10-16T06:26:22;3.30;;;1.80;;
55732;SDS011;41637;52.364;9.910;2022-10-16T06:28:51;3.70;;;1.80;;
55732;SDS011;41637;52.364;9.910;2022-10-16T06:31:17;5.40;;;1.90;;
55732;SDS011;41637;52.364;9.910;2022-10-16T06:33:44;4.10;;;1.70;;
55732;SDS011;41637;52.364;9.910;2022-10-16T06:36:13;4.30;;;1.80;;
55732;SDS011;41637;52.364;9.910;2022-10-16T06:38:42;3.20;;;1.80;;
55732;SDS011;41637;52.364;9.910;2022-10-16T06:41:10;3.10;;;1.70;;
55732;SDS011;41637;52.364;9.910;2022-10-16T06:43:39;3.00;;;1.70;;
55732;SDS011;41637;52.364;9.910;2022-10-16T06:46:06;2.90;;;1.80;;
55732;SDS011;41637;52.364;9.910;2022-10-16T06:48:36;3.20;;;1.90;;
55732;SDS011;41637;52.364;9.910;2022-10-16T06:51:09;5.10;;;2.10;;
55732;SDS011;41637;52.364;9.910;2022-10-16T06:53:41;3.00;;;1.70;;
55732;SDS011;41637;52.364;9.910;2022-10-16T06:56:27;4.50;;;1.80;;
55732;SDS011;41637;52.364;9.910;2022-10-16T06:58:55;3.20;;;1.80;;
55732;SDS011;41637;52.364;9.910;2022-10-16T07:01:23;3.10;;;1.90;;
55732;SDS011;41637;52.364;9.910;2022-10-16T07:03:50;3.30;;;1.90;;
55732;SDS011;41637;52.364;9.910;2022-10-16T07:06:18;2.90;;;1.60;;
55732;SDS011;41637;52.364;9.910;2022-10-16T07:08:46;3.00;;;1.70;;
55732;SDS011;41637;52.364;9.910;2022-10-16T07:11:15;3.60;;;1.60;;
55732;SDS011;41637;52.364;9.910;2022-10-16T07:13:43;3.10;;;1.80;;
55732;SDS011;41637;52.364;9.910;2022-10-16T07:16:20;3.20;;;1.80;;
55732;SDS011;41637;52.364;9.910;2022-10-16T07:18:49;3.50;;;1.70;;
55732;SDS011;41637;52.364;9.910;2022-10-16T07:21:21;3.10;;;1.80;;
55732;SDS011;41637;52.364;9.910;2022-10-16T07:23:52;3.00;;;1.60;;
55732;SDS011;41637;52.364;9.910;2022-10-16T07:26:20;2.80;;;1.60;;
55732;SDS011;41637;52.364;9.910;2022-10-16T07:28:48;3.20;;;1.70;;
55732;SDS011;41637;52.364;9.910;2022-10-16T07:31:15;3.50;;;1.70;;
55732;SDS011;41637;52.364;9.910;2022-10-16T07:33:43;3.40;;;1.70;;
55732;SDS011;41637;52.364;9.910;2022-10-16T07:36:11;2.50;;;1.50;;
55732;SDS011;41637;52.364;9.910;2022-10-16T07:38:42;3.50;;;1.50;;
55732;SDS011;41637;52.364;9.910;2022-10-16T07:41:10;2.30;;;1.50;;
55732;SDS011;41637;52.364;9.910;2022-10-16T07:43:38;3.10;;;1.50;;
55732;SDS011;41637;52.364;9.910;2022-10-16T07:46:05;2.30;;;1.50;;
55732;SDS011;41637;52.364;9.910;2022-10-16T07:48:33;4.20;;;1.60;;
55732;SDS011;41637;52.364;9.910;2022-10-16T07:51:01;2.60;;;1.70;;
55732;SDS011;41637;52.364;9.910;2022-10-16T07:53:29;4.40;;;1.80;;
55732;SDS011;41637;52.364;9.910;2022-10-16T07:56:03;3.10;;;1.50;;
55732;SDS011;41637;52.364;9.910;2022-10-16T07:58:32;2.20;;;1.50;;
55732;SDS011;41637;52.364;9.910;2022-10-16T08:01:03;3.10;;;1.70;;
55732;SDS011;41637;52.364;9.910;2022-10-16T08:03:31;2.60;;;1.40;;
55732;SDS011;41637;52.364;9.910;2022-10-16T08:05:58;2.30;;;1.20;;
55732;SDS011;41637;52.364;9.910;2022-10-16T08:08:25;2.10;;;1.20;;
55732;SDS011;41637;52.364;9.910;2022-10-16T08:10:52;3.60;;;1.30;;
55732;SDS011;41637;52.364;9.910;2022-10-16T08:13:19;2.40;;;1.00;;
55732;SDS011;41637;52.364;9.910;2022-10-16T08:15:46;2.20;;;1.00;;
55732;SDS011;41637;52.364;9.910;2022-10-16T08:18:13;2.30;;;0.80;;
55732;SDS011;41637;52.364;9.910;2022-10-16T08:20:41;2.60;;;0.90;;
55732;SDS011;41637;52.364;9.910;2022-10-16T08:23:09;2.30;;;0.90;;
55732;SDS011;41637;52.364;9.910;2022-10-16T08:25:38;2.20;;;0.70;;
55732;SDS011;41637;52.364;9.910;2022-10-16T08:28:05;1.00;;;0.60;;
55732;SDS011;41637;52.364;9.910;2022-10-16T08:30:33;2.00;;;0.70;;
55732;SDS011;41637;52.364;9.910;2022-10-16T08:33:00;1.50;;;0.50;;
55732;SDS011;41637;52.364;9.910;2022-10-16T08:35:27;1.30;;;0.70;;
55732;SDS011;41637;52.364;9.910;2022-10-16T08:37:54;1.70;;;0.60;;
55732;SDS011;41637;52.364;9.910;2022-10-16T08:40:27;1.40;;;0.60;;
55732;SDS011;41637;52.364;9.910;2022-10-16T08:48:45;2.20;;;0.70;;
55732;SDS011;41637;52.364;9.910;2022-10-16T08:51:22;1.80;;;0.60;;
55732;SDS011;41637;52.364;9.910;2022-10-16T08:56:30;2.40;;;0.50;;
55732;SDS011;41637;52.364;9.910;2022-10-16T08:58:59;1.30;;;0.50;;
55732;SDS011;41637;52.364;9.910;2022-10-16T09:01:38;1.70;;;0.50;;
55732;SDS011;41637;52.364;9.910;2022-10-16T09:07:04;2.80;;;0.70;;
55732;SDS011;41637;52.364;9.910;2022-10-16T09:12:21;1.70;;;0.70;;
55732;SDS011;41637;52.364;9.910;2022-10-16T09:14:58;2.00;;;0.60;;
55732;SDS011;41637;52.364;9.910;2022-10-16T09:23:22;2.50;;;0.60;;
55732;SDS011;41637;52.364;9.910;2022-10-16T09:25:53;2.50;;;0.80;;
55732;SDS011;41637;52.364;9.910;2022-10-16T09:28:21;2.50;;;0.80;;
55732;SDS011;41637;52.364;9.910;2022-10-16T09:30:48;3.00;;;0.70;;
55732;SDS011;41637;52.364;9.910;2022-10-16T09:33:16;2.60;;;0.70;;
55732;SDS011;41637;52.364;9.910;2022-10-16T09:35:46;1.60;;;0.50;;
55732;SDS011;41637;52.364;9.910;2022-10-16T09:40:52;2.50;;;0.70;;
55732;SDS011;41637;52.364;9.910;2022-10-16T09:45:58;2.20;;;0.70;;
55732;SDS011;41637;52.364;9.910;2022-10-16T09:48:36;3.00;;;0.80;;
55732;SDS011;41637;52.364;9.910;2022-10-16T09:51:06;2.70;;;0.70;;
55732;SDS011;41637;52.364;9.910;2022-10-16T09:53:42;3.10;;;0.80;;
55732;SDS011;41637;52.364;9.910;2022-10-16T09:56:11;2.50;;;0.60;;
55732;SDS011;41637;52.364;9.910;2022-10-16T09:58:51;1.90;;;0.60;;
55732;SDS011;41637;52.364;9.910;2022-10-16T10:01:22;3.20;;;0.60;;
55732;SDS011;41637;52.364;9.910;2022-10-16T10:03:56;1.90;;;0.60;;
55732;SDS011;41637;52.364;9.910;2022-10-16T10:06:31;1.60;;;0.60;;
55732;SDS011;41637;52.364;9.910;2022-10-16T10:09:02;2.50;;;0.70;;
55732;SDS011;41637;52.364;9.910;2022-10-16T10:14:22;3.00;;;0.50;;
55732;SDS011;41637;52.364;9.910;2022-10-16T10:16:52;3.40;;;0.60;;
55732;SDS011;41637;52.364;9.910;2022-10-16T10:19:27;2.50;;;0.60;;
55732;SDS011;41637;52.364;9.910;2022-10-16T10:21:58;2.20;;;0.50;;
55732;SDS011;41637;52.364;9.910;2022-10-16T10:24:24;2.10;;;0.50;;
55732;SDS011;41637;52.364;9.910;2022-10-16T10:26:53;1.90;;;0.50;;
55732;SDS011;41637;52.364;9.910;2022-10-16T10:32:30;2.00;;;0.70;;
55732;SDS011;41637;52.364;9.910;2022-10-16T10:35:14;1.40;;;0.50;;
55732;SDS011;41637;52.364;9.910;2022-10-16T10:40:51;2.90;;;0.50;;
55732;SDS011;41637;52.364;9.910;2022-10-16T10:46:09;2.10;;;0.60;;
55732;SDS011;41637;52.364;9.910;2022-10-16T10:48:47;2.80;;;0.50;;
55732;SDS011;41637;52.364;9.910;2022-10-16T10:51:31;2.00;;;0.40;;
55732;SDS011;41637;52.364;9.910;2022-10-16T10:54:26;3.40;;;0.50;;
55732;SDS011;41637;52.364;9.910;2022-10-16T10:59:42;2.10;;;0.60;;
55732;SDS011;41637;52.364;9.910;2022-10-16T11:02:48;3.40;;;0.60;;
55732;SDS011;41637;52.364;9.910;2022-10-16T11:05:20;2.50;;;0.50;;
55732;SDS011;41637;52.364;9.910;2022-10-16T11:07:58;2.50;;;0.50;;
55732;SDS011;41637;52.364;9.910;2022-10-16T11:10:38;2.20;;;0.60;;
55732;SDS011;41637;52.364;9.910;2022-10-16T11:13:20;1.80;;;0.70;;
55732;SDS011;41637;52.364;9.910;2022-10-16T11:15:53;2.10;;;0.40;;
55732;SDS011;41637;52.364;9.910;2022-10-16T11:18:27;2.90;;;0.50;;
55732;SDS011;41637;52.364;9.910;2022-10-16T11:21:07;2.40;;;0.40;;
55732;SDS011;41637;52.364;9.910;2022-10-16T11:23:41;3.00;;;0.50;;
55732;SDS011;41637;52.364;9.910;2022-10-16T11:26:16;3.10;;;0.50;;
55732;SDS011;41637;52.364;9.910;2022-10-16T11:28:50;2.30;;;0.60;;
55732;SDS011;41637;52.364;9.910;2022-10-16T11:37:01;2.20;;;0.50;;
55732;SDS011;41637;52.364;9.910;2022-10-16T11:39:31;1.60;;;0.50;;
55732;SDS011;41637;52.364;9.910;2022-10-16T11:47:35;1.90;;;0.40;;
55732;SDS011;41637;52.364;9.910;2022-10-16T11:50:28;3.10;;;0.40;;
55732;SDS011;41637;52.364;9.910;2022-10-16T11:55:50;1.20;;;0.40;;
55732;SDS011;41637;52.364;9.910;2022-10-16T11:58:26;1.30;;;0.30;;
55732;SDS011;41637;52.364;9.910;2022-10-16T12:09:39;2.20;;;0.30;;
55732;SDS011;41637;52.364;9.910;2022-10-16T12:12:26;2.30;;;0.40;;
55732;SDS011;41637;52.364;9.910;2022-10-16T12:17:47;1.80;;;0.30;;
55732;SDS011;41637;52.364;9.910;2022-10-16T12:22:50;2.40;;;0.60;;
55732;SDS011;41637;52.364;9.910;2022-10-16T12:25:27;2.70;;;0.50;;
55732;SDS011;41637;52.364;9.910;2022-10-16T12:28:05;1.40;;;0.30;;
55732;SDS011;41637;52.364;9.910;2022-10-16T12:30:43;1.10;;;0.30;;
55732;SDS011;41637;52.364;9.910;2022-10-16T12:33:27;1.60;;;0.30;;
55732;SDS011;41637;52.364;9.910;2022-10-16T12:36:11;2.40;;;0.50;;
55732;SDS011;41637;52.364;9.910;2022-10-16T12:38:50;1.30;;;0.30;;
55732;SDS011;41637;52.364;9.910;2022-10-16T12:43:55;2.50;;;0.40;;
55732;SDS011;41637;52.364;9.910;2022-10-16T12:46:24;1.70;;;0.40;;
55732;SDS011;41637;52.364;9.910;2022-10-16T12:51:38;1.80;;;0.40;;
55732;SDS011;41637;52.364;9.910;2022-10-16T12:54:12;1.90;;;0.40;;
55732;SDS011;41637;52.364;9.910;2022-10-16T13:02:32;1.00;;;0.20;;
55732;SDS011;41637;52.364;9.910;2022-10-16T13:24:24;2.00;;;0.40;;
55732;SDS011;41637;52.364;9.910;2022-10-16T13:27:12;1.30;;;0.20;;
55732;SDS011;41637;52.364;9.910;2022-10-16T13:29:51;2.30;;;0.50;;
55732;SDS011;41637;52.364;9.910;2022-10-16T13:32:21;0.90;;;0.30;;
55732;SDS011;41637;52.364;9.910;2022-10-16T13:34:48;1.10;;;0.30;;
55732;SDS011;41637;52.364;9.910;2022-10-16T13:37:18;1.70;;;0.50;;
55732;SDS011;41637;52.364;9.910;2022-10-16T13:39:47;2.40;;;0.40;;
55732;SDS011;41637;52.364;9.910;2022-10-16T13:42:28;1.50;;;0.30;;
55732;SDS011;41637;52.364;9.910;2022-10-16T13:44:55;1.30;;;0.50;;
55732;SDS011;41637;52.364;9.910;2022-10-16T13:47:23;1.70;;;0.40;;
55732;SDS011;41637;52.364;9.910;2022-10-16T13:52:29;1.40;;;0.30;;
55732;SDS011;41637;52.364;9.910;2022-10-16T13:54:56;1.10;;;0.30;;
55732;SDS011;41637;52.364;9.910;2022-10-16T13:57:27;1.20;;;0.40;;
55732;SDS011;41637;52.364;9.910;2022-10-16T13:59:53;2.50;;;0.40;;
55732;SDS011;41637;52.364;9.910;2022-10-16T14:02:27;1.10;;;0.30;;
55732;SDS011;41637;52.364;9.910;2022-10-16T14:04:58;1.50;;;0.30;;
55732;SDS011;41637;52.364;9.910;2022-10-16T14:07:29;0.90;;;0.40;;
55732;SDS011;41637;52.364;9.910;2022-10-16T14:10:00;1.80;;;0.40;;
55732;SDS011;41637;52.364;9.910;2022-10-16T14:12:30;1.10;;;0.30;;
55732;SDS011;41637;52.364;9.910;2022-10-16T14:14:57;2.20;;;0.40;;
55732;SDS011;41637;52.364;9.910;2022-10-16T14:17:26;1.60;;;0.20;;
55732;SDS011;41637;52.364;9.910;2022-10-16T14:19:59;1.70;;;0.40;;
55732;SDS011;41637;52.364;9.910;2022-10-16T14:22:40;1.30;;;0.40;;
55732;SDS011;41637;52.364;9.910;2022-10-16T14:25:40;1.90;;;0.50;;
55732;SDS011;41637;52.364;9.910;2022-10-16T14:28:01;1.70;;;0.40;;
55732;SDS011;41637;52.364;9.910;2022-10-16T14:30:57;1.00;;;0.20;;
55732;SDS011;41637;52.364;9.910;2022-10-16T14:38:34;2.00;;;0.40;;
55732;SDS011;41637;52.364;9.910;2022-10-16T14:41:01;1.70;;;0.40;;
55732;SDS011;41637;52.364;9.910;2022-10-16T14:58:21;2.60;;;0.50;;
55732;SDS011;41637;52.364;9.910;2022-10-16T15:00:49;1.70;;;0.50;;
55732;SDS011;41637;52.364;9.910;2022-10-16T15:03:15;1.40;;;0.30;;
55732;SDS011;41637;52.364;9.910;2022-10-16T15:05:42;1.30;;;0.50;;
55732;SDS011;41637;52.364;9.910;2022-10-16T15:08:08;1.90;;;0.40;;
55732;SDS011;41637;52.364;9.910;2022-10-16T15:10:42;1.90;;;0.40;;
55732;SDS011;41637;52.364;9.910;2022-10-16T15:13:13;1.90;;;0.50;;
55732;SDS011;41637;52.364;9.910;2022-10-16T15:15:43;2.00;;;0.30;;
55732;SDS011;41637;52.364;9.910;2022-10-16T15:18:12;1.90;;;0.40;;
55732;SDS011;41637;52.364;9.910;2022-10-16T15:20:41;1.50;;;0.50;;
55732;SDS011;41637;52.364;9.910;2022-10-16T15:23:13;1.40;;;0.60;;
55732;SDS011;41637;52.364;9.910;2022-10-16T15:25:46;1.70;;;0.50;;
55732;SDS011;41637;52.364;9.910;2022-10-16T15:28:17;2.50;;;0.40;;
55732;SDS011;41637;52.364;9.910;2022-10-16T15:30:44;2.50;;;0.50;;
55732;SDS011;41637;52.364;9.910;2022-10-16T15:33:15;2.90;;;0.40;;
55732;SDS011;41637;52.364;9.910;2022-10-16T15:35:47;2.30;;;0.50;;
55732;SDS011;41637;52.364;9.910;2022-10-16T15:38:15;2.70;;;0.50;;
55732;SDS011;41637;52.364;9.910;2022-10-16T15:40:43;2.30;;;0.30;;
55732;SDS011;41637;52.364;9.910;2022-10-16T15:43:09;1.80;;;0.30;;
55732;SDS011;41637;52.364;9.910;2022-10-16T15:45:36;2.10;;;0.50;;
55732;SDS011;41637;52.364;9.910;2022-10-16T15:48:03;2.00;;;0.40;;
55732;SDS011;41637;52.364;9.910;2022-10-16T15:50:30;1.70;;;0.50;;
55732;SDS011;41637;52.364;9.910;2022-10-16T15:52:57;1.30;;;0.40;;
55732;SDS011;41637;52.364;9.910;2022-10-16T15:55:24;2.70;;;0.50;;
55732;SDS011;41637;52.364;9.910;2022-10-16T15:57:50;3.00;;;0.40;;
55732;SDS011;41637;52.364;9.910;2022-10-16T16:00:18;1.40;;;0.50;;
55732;SDS011;41637;52.364;9.910;2022-10-16T16:02:49;1.50;;;0.40;;
55732;SDS011;41637;52.364;9.910;2022-10-16T16:05:20;2.30;;;0.50;;
55732;SDS011;41637;52.364;9.910;2022-10-16T16:07:48;1.80;;;0.40;;
55732;SDS011;41637;52.364;9.910;2022-10-16T16:10:15;3.70;;;0.50;;
55732;SDS011;41637;52.364;9.910;2022-10-16T16:12:42;5.40;;;1.00;;
55732;SDS011;41637;52.364;9.910;2022-10-16T16:15:09;2.00;;;0.50;;
55732;SDS011;41637;52.364;9.910;2022-10-16T16:17:36;1.70;;;0.50;;
55732;SDS011;41637;52.364;9.910;2022-10-16T16:20:03;2.30;;;0.60;;
55732;SDS011;41637;52.364;9.910;2022-10-16T16:22:31;2.50;;;0.70;;
55732;SDS011;41637;52.364;9.910;2022-10-16T16:24:58;1.60;;;0.60;;
55732;SDS011;41637;52.364;9.910;2022-10-16T16:27:24;1.80;;;0.50;;
55732;SDS011;41637;52.364;9.910;2022-10-16T16:29:51;2.40;;;0.60;;
55732;SDS011;41637;52.364;9.910;2022-10-16T16:32:19;3.10;;;0.60;;
55732;SDS011;41637;52.364;9.910;2022-10-16T16:34:45;2.60;;;0.60;;
55732;SDS011;41637;52.364;9.910;2022-10-16T16:37:12;3.10;;;0.80;;
55732;SDS011;41637;52.364;9.910;2022-10-16T16:39:38;4.00;;;1.50;;
55732;SDS011;41637;52.364;9.910;2022-10-16T16:42:05;4.40;;;1.60;;
55732;SDS011;41637;52.364;9.910;2022-10-16T16:44:33;4.20;;;1.30;;
55732;SDS011;41637;52.364;9.910;2022-10-16T16:47:02;5.90;;;1.30;;
55732;SDS011;41637;52.364;9.910;2022-10-16T16:49:30;3.00;;;1.10;;
55732;SDS011;41637;52.364;9.910;2022-10-16T16:51:56;2.20;;;0.90;;
55732;SDS011;41637;52.364;9.910;2022-10-16T16:54:23;2.40;;;0.70;;
55732;SDS011;41637;52.364;9.910;2022-10-16T16:56:51;3.40;;;1.10;;
55732;SDS011;41637;52.364;9.910;2022-10-16T16:59:18;5.10;;;1.10;;
55732;SDS011;41637;52.364;9.910;2022-10-16T17:01:46;2.90;;;1.20;;
55732;SDS011;41637;52.364;9.910;2022-10-16T17:04:16;2.60;;;1.10;;
55732;SDS011;41637;52.364;9.910;2022-10-16T17:06:42;2.20;;;1.00;;
55732;SDS011;41637;52.364;9.910;2022-10-16T17:09:09;6.50;;;1.30;;
55732;SDS011;41637;52.364;9.910;2022-10-16T17:11:39;4.60;;;1.50;;